createdAt,value
2023-04-05T00:02:13.913Z,92.60
2023-04-05T00:05:41.356Z,56.00
2023-04-05T00:09:08.444Z,35.50
2023-04-05T00:12:35.132Z,24.60
2023-04-05T00:16:02.792Z,34.20
2023-04-05T00:19:33.953Z,46.90
2023-04-05T00:23:01.096Z,36.30
2023-04-05T00:26:28.136Z,24.70
2023-04-05T00:29:56.457Z,20.20
2023-04-05T00:33:23.500Z,20.60
2023-04-05T00:36:50.562Z,19.80
2023-04-05T00:40:17.530Z,22.10
2023-04-05T00:43:44.802Z,76.20
2023-04-05T00:47:11.737Z,39.70
2023-04-05T00:50:39.387Z,24.30
2023-04-05T00:54:08.654Z,19.20
2023-04-05T00:57:39.147Z,19.60
2023-04-05T01:01:13.799Z,17.10
2023-04-05T01:04:50.195Z,19.50
2023-04-05T01:08:23.463Z,17.80
2023-04-05T01:11:53.520Z,18.00
2023-04-05T01:15:20.811Z,17.40
2023-04-05T01:18:47.795Z,16.40
2023-04-05T01:23:01.590Z,16.80
2023-04-05T01:26:54.718Z,19.30
2023-04-05T01:30:25.594Z,16.40
2023-04-05T01:33:59.037Z,25.70
2023-04-05T01:37:32.957Z,33.60
2023-04-05T01:41:00.431Z,25.40
2023-04-05T01:44:27.427Z,18.90
2023-04-05T01:47:59.079Z,16.30
2023-04-05T01:51:26.816Z,35.30
2023-04-05T01:54:53.943Z,43.10
2023-04-05T01:58:20.794Z,31.20
2023-04-05T02:01:47.699Z,21.60
2023-04-05T02:05:14.948Z,17.30
2023-04-05T02:08:42.020Z,14.30
2023-04-05T02:12:09.915Z,14.50
2023-04-05T02:15:38.222Z,13.90
2023-04-05T02:19:05.847Z,13.50
2023-04-05T02:22:32.837Z,12.40
2023-04-05T02:26:00.347Z,12.40
2023-04-05T02:29:27.714Z,12.00
2023-04-05T02:32:54.653Z,11.50
2023-04-05T02:36:22.279Z,12.40
2023-04-05T02:39:49.436Z,12.10
2023-04-05T02:43:16.615Z,11.70
2023-04-05T02:46:43.524Z,12.40
2023-04-05T02:50:11.881Z,10.90
2023-04-05T02:53:44.863Z,11.80
2023-04-05T02:57:13.906Z,12.40
2023-04-05T03:00:51.531Z,13.00
2023-04-05T03:04:21.622Z,12.80
2023-04-05T03:07:51.384Z,12.30
2023-04-05T03:11:19.742Z,13.80
2023-04-05T03:14:50.547Z,11.60
2023-04-05T03:18:20.897Z,11.40
2023-04-05T03:21:48.294Z,11.30
2023-04-05T03:25:26.238Z,11.50
2023-04-05T03:28:53.464Z,11.80
2023-04-05T03:32:26.499Z,10.00
2023-04-05T03:36:00.640Z,11.20
2023-04-05T03:39:29.074Z,7.00
2023-04-05T03:42:56.997Z,9.60
2023-04-05T03:46:24.606Z,9.30
2023-04-05T03:49:51.706Z,10.00
2023-04-05T03:53:19.641Z,9.10
2023-04-05T03:56:49.590Z,12.70
2023-04-05T04:00:18.949Z,10.20
2023-04-05T04:03:55.641Z,11.10
2023-04-05T04:07:24.540Z,12.40
2023-04-05T04:10:51.790Z,12.50
2023-04-05T04:14:22.916Z,11.30
2023-04-05T04:18:09.013Z,11.30
2023-04-05T04:21:56.043Z,11.50
2023-04-05T04:25:46.246Z,9.70
2023-04-05T04:29:47.064Z,10.60
2023-04-05T04:33:31.088Z,9.90
2023-04-05T04:37:17.786Z,10.50
2023-04-05T04:41:10.920Z,9.60
2023-04-05T04:45:03.197Z,10.40
2023-04-05T04:48:58.562Z,10.00
2023-04-05T04:52:32.171Z,9.00
2023-04-05T04:55:59.275Z,9.80
2023-04-05T04:59:26.443Z,11.20
2023-04-05T05:02:53.821Z,29.60
2023-04-05T05:06:22.096Z,37.20
2023-04-05T05:09:52.466Z,39.10
2023-04-05T05:13:19.437Z,21.40
2023-04-05T05:16:46.487Z,15.40
2023-04-05T05:20:14.808Z,15.00
2023-04-05T05:23:45.780Z,14.10
2023-04-05T05:27:12.650Z,14.50
2023-04-05T05:30:39.927Z,12.80
2023-04-05T05:34:07.558Z,15.90
2023-04-05T05:37:36.763Z,13.00
2023-04-05T05:41:03.707Z,12.60
2023-04-05T05:44:31.752Z,11.70
2023-04-05T05:47:59.186Z,11.40
2023-04-05T05:51:26.366Z,10.30
2023-04-05T05:54:53.145Z,9.30
2023-04-05T05:58:19.950Z,9.00
2023-04-05T06:01:47.627Z,8.70
2023-04-05T06:05:14.684Z,9.50
2023-04-05T06:08:41.821Z,9.20
2023-04-05T06:12:09.468Z,8.30
2023-04-05T06:15:37.016Z,9.70
2023-04-05T06:19:04.044Z,7.90
2023-04-05T06:22:30.951Z,7.20
2023-04-05T06:25:58.604Z,7.70
2023-04-05T06:29:25.482Z,6.60
2023-04-05T06:32:54.670Z,6.30
2023-04-05T06:36:21.943Z,6.90
2023-04-05T06:39:49.175Z,6.40
2023-04-05T06:43:16.518Z,7.20
2023-04-05T06:46:43.344Z,7.40
2023-04-05T06:50:11.974Z,7.60
2023-04-05T06:53:38.940Z,6.30
2023-04-05T06:57:05.989Z,8.70
2023-04-05T07:00:34.667Z,8.00
2023-04-05T07:04:01.700Z,7.40
2023-04-05T07:07:28.832Z,7.70
2023-04-05T07:10:56.078Z,7.10
2023-04-05T07:14:22.998Z,7.50
2023-04-05T07:17:50.062Z,7.70
2023-04-05T07:21:18.039Z,7.10
2023-04-05T07:24:46.106Z,8.20
2023-04-05T07:28:14.261Z,8.00
2023-04-05T07:31:41.561Z,6.80
2023-04-05T07:35:10.786Z,7.20
2023-04-05T07:38:37.930Z,8.10
2023-04-05T07:42:05.088Z,8.70
2023-04-05T07:45:32.062Z,9.20
2023-04-05T07:48:59.540Z,8.70
2023-04-05T07:52:26.487Z,8.40
2023-04-05T07:55:54.654Z,8.90
2023-04-05T07:59:22.104Z,7.90
2023-04-05T08:02:49.159Z,8.50
2023-04-05T08:06:18.351Z,9.60
2023-04-05T08:09:45.218Z,8.30
2023-04-05T08:13:12.137Z,9.30
2023-04-05T08:16:39.140Z,7.90
2023-04-05T08:20:07.470Z,8.20
2023-04-05T08:23:34.461Z,9.20
2023-04-05T08:27:02.070Z,9.10
2023-04-05T08:30:30.406Z,8.30
2023-04-05T08:33:57.324Z,9.20
2023-04-05T08:37:26.278Z,8.70
